sensor_id;sensor_type;location;lat;lon;timestamp;pressure;altitude;pressure_sealevel;temperature;humidity
66273;BME280;58450;52.150;4.466;2022-09-03T00:02:21;101092.47;;;18.98;57.95
66273;BME280;58450;52.150;4.466;2022-09-03T00:04:58;101086.66;;;18.95;57.94
66273;BME280;58450;52.150;4.466;2022-09-03T00:07:34;101086.06;;;18.93;57.64
66273;BME280;58450;52.150;4.466;2022-09-03T00:10:10;101083.56;;;18.91;58.06
66273;BME280;58450;52.150;4.466;2022-09-03T00:12:46;101077.50;;;18.89;58.47
66273;BME280;58450;52.150;4.466;2022-09-03T00:15:18;101066.25;;;18.85;58.42
66273;BME280;58450;52.150;4.466;2022-09-03T00:17:50;101069.09;;;18.79;58.54
66273;BME280;58450;52.150;4.466;2022-09-03T00:20:21;101075.00;;;18.75;58.48
66273;BME280;58450;52.150;4.466;2022-09-03T00:22:56;101076.81;;;18.70;58.28
66273;BME280;58450;52.150;4.466;2022-09-03T00:25:34;101072.88;;;18.66;58.52
66273;BME280;58450;52.150;4.466;2022-09-03T00:28:11;101075.25;;;18.62;58.37
66273;BME280;58450;52.150;4.466;2022-09-03T00:30:45;101067.53;;;18.59;58.12
66273;BME280;58450;52.150;4.466;2022-09-03T00:33:25;101071.31;;;18.58;58.95
66273;BME280;58450;52.150;4.466;2022-09-03T00:36:04;101068.84;;;18.56;58.80
66273;BME280;58450;52.150;4.466;2022-09-03T00:38:40;101065.53;;;18.54;58.96
66273;BME280;58450;52.150;4.466;2022-09-03T00:41:16;101068.97;;;18.50;59.61
66273;BME280;58450;52.150;4.466;2022-09-03T00:44:04;101062.94;;;18.48;59.46
66273;BME280;58450;52.150;4.466;2022-09-03T00:46:44;101065.66;;;18.48;59.58
66273;BME280;58450;52.150;4.466;2022-09-03T00:49:26;101063.63;;;18.43;59.80
66273;BME280;58450;52.150;4.466;2022-09-03T00:52:09;101065.59;;;18.36;59.62
66273;BME280;58450;52.150;4.466;2022-09-03T00:54:52;101053.91;;;18.35;60.02
66273;BME280;58450;52.150;4.466;2022-09-03T00:57:37;101063.94;;;18.35;60.04
66273;BME280;58450;52.150;4.466;2022-09-03T01:00:15;101068.81;;;18.33;60.17
66273;BME280;58450;52.150;4.466;2022-09-03T01:02:56;101059.91;;;18.25;60.83
66273;BME280;58450;52.150;4.466;2022-09-03T01:05:41;101067.59;;;18.16;60.92
66273;BME280;58450;52.150;4.466;2022-09-03T01:08:35;101066.38;;;18.12;61.05
66273;BME280;58450;52.150;4.466;2022-09-03T01:11:23;101066.38;;;18.12;61.43
66273;BME280;58450;52.150;4.466;2022-09-03T01:14:08;101066.38;;;18.12;61.54
66273;BME280;58450;52.150;4.466;2022-09-03T01:16:51;101066.84;;;18.09;61.54
66273;BME280;58450;52.150;4.466;2022-09-03T01:19:39;101064.13;;;18.09;61.79
66273;BME280;58450;52.150;4.466;2022-09-03T01:22:30;101061.28;;;18.04;62.09
66273;BME280;58450;52.150;4.466;2022-09-03T01:25:15;101065.19;;;18.08;61.91
66273;BME280;58450;52.150;4.466;2022-09-03T01:28:03;101057.94;;;18.02;62.04
66273;BME280;58450;52.150;4.466;2022-09-03T01:30:41;101060.66;;;18.02;62.35
66273;BME280;58450;52.150;4.466;2022-09-03T01:33:17;101063.81;;;17.99;63.00
66273;BME280;58450;52.150;4.466;2022-09-03T01:35:57;101063.81;;;17.99;62.88
66273;BME280;58450;52.150;4.466;2022-09-03T01:38:37;101071.41;;;17.97;63.54
66273;BME280;58450;52.150;4.466;2022-09-03T01:41:18;101074.72;;;17.99;62.68
66273;BME280;58450;52.150;4.466;2022-09-03T01:44:36;101064.53;;;17.94;62.96
66273;BME280;58450;52.150;4.466;2022-09-03T01:47:22;101070.06;;;17.87;62.92
66273;BME280;58450;52.150;4.466;2022-09-03T01:50:03;101061.22;;;17.92;63.02
66273;BME280;58450;52.150;4.466;2022-09-03T01:52:44;101068.19;;;17.88;63.33
66273;BME280;58450;52.150;4.466;2022-09-03T01:55:29;101065.44;;;17.88;62.86
66273;BME280;58450;52.150;4.466;2022-09-03T01:58:04;101062.13;;;17.86;62.95
66273;BME280;58450;52.150;4.466;2022-09-03T02:00:41;101068.03;;;17.83;62.79
66273;BME280;58450;52.150;4.466;2022-09-03T02:03:12;101066.38;;;17.82;63.26
66273;BME280;58450;52.150;4.466;2022-09-03T02:05:41;101052.97;;;17.80;62.73
66273;BME280;58450;52.150;4.466;2022-09-03T02:08:11;101058.41;;;17.80;63.32
66273;BME280;58450;52.150;4.466;2022-09-03T02:10:40;101061.00;;;17.75;63.15
66273;BME280;58450;52.150;4.466;2022-09-03T02:13:15;101047.84;;;17.72;62.90
66273;BME280;58450;52.150;4.466;2022-09-03T02:15:49;101049.16;;;17.69;63.59
66273;BME280;58450;52.150;4.466;2022-09-03T02:18:21;101048.09;;;17.70;63.84
66273;BME280;58450;52.150;4.466;2022-09-03T02:20:52;101045.84;;;17.67;64.18
66273;BME280;58450;52.150;4.466;2022-09-03T02:23:21;101047.13;;;17.65;63.96
66273;BME280;58450;52.150;4.466;2022-09-03T02:25:54;101039.78;;;17.65;64.45
66273;BME280;58450;52.150;4.466;2022-09-03T02:28:24;101047.59;;;17.62;64.33
66273;BME280;58450;52.150;4.466;2022-09-03T02:30:54;101042.38;;;17.60;64.70
66273;BME280;58450;52.150;4.466;2022-09-03T02:33:21;101047.13;;;17.65;64.48
66273;BME280;58450;52.150;4.466;2022-09-03T02:35:49;101042.50;;;17.65;64.56
66273;BME280;58450;52.150;4.466;2022-09-03T02:38:19;101042.59;;;17.58;64.44
66273;BME280;58450;52.150;4.466;2022-09-03T02:40:50;101046.59;;;17.56;64.92
66273;BME280;58450;52.150;4.466;2022-09-03T02:43:22;101040.94;;;17.57;64.80
66273;BME280;58450;52.150;4.466;2022-09-03T02:45:59;101044.59;;;17.51;64.07
66273;BME280;58450;52.150;4.466;2022-09-03T02:48:29;101048.97;;;17.52;64.53
66273;BME280;58450;52.150;4.466;2022-09-03T02:50:57;101043.13;;;17.49;64.07
66273;BME280;58450;52.150;4.466;2022-09-03T02:53:24;101034.81;;;17.43;64.52
66273;BME280;58450;52.150;4.466;2022-09-03T02:55:57;101046.09;;;17.47;64.45
66273;BME280;58450;52.150;4.466;2022-09-03T02:58:26;101046.09;;;17.47;64.94
66273;BME280;58450;52.150;4.466;2022-09-03T03:00:56;101046.56;;;17.44;64.66
66273;BME280;58450;52.150;4.466;2022-09-03T03:03:25;101042.63;;;17.40;65.33
66273;BME280;58450;52.150;4.466;2022-09-03T03:05:54;101047.22;;;17.39;65.51
66273;BME280;58450;52.150;4.466;2022-09-03T03:08:25;101047.91;;;17.35;65.56
66273;BME280;58450;52.150;4.466;2022-09-03T03:10:56;101045.25;;;17.28;65.89
66273;BME280;58450;52.150;4.466;2022-09-03T03:13:25;101047.97;;;17.28;65.60
66273;BME280;58450;52.150;4.466;2022-09-03T03:15:56;101046.56;;;17.25;65.98
66273;BME280;58450;52.150;4.466;2022-09-03T03:18:25;101048.91;;;17.22;66.36
66273;BME280;58450;52.150;4.466;2022-09-03T03:20:53;101047.25;;;17.21;66.09
66273;BME280;58450;52.150;4.466;2022-09-03T03:23:20;101048.75;;;17.17;66.35
66273;BME280;58450;52.150;4.466;2022-09-03T03:25:48;101047.69;;;17.18;66.78
66273;BME280;58450;52.150;4.466;2022-09-03T03:28:15;101044.97;;;17.18;66.79
66273;BME280;58450;52.150;4.466;2022-09-03T03:30:45;101046.03;;;17.17;67.33
66273;BME280;58450;52.150;4.466;2022-09-03T03:33:15;101045.50;;;17.08;67.77
66273;BME280;58450;52.150;4.466;2022-09-03T03:35:42;101044.84;;;17.12;67.75
66273;BME280;58450;52.150;4.466;2022-09-03T03:38:10;101048.44;;;17.06;67.83
66273;BME280;58450;52.150;4.466;2022-09-03T03:40:37;101047.00;;;17.04;68.00
66273;BME280;58450;52.150;4.466;2022-09-03T03:43:04;101048.44;;;17.06;68.12
66273;BME280;58450;52.150;4.466;2022-09-03T03:45:32;101053.50;;;17.03;68.07
66273;BME280;58450;52.150;4.466;2022-09-03T03:47:59;101044.78;;;16.94;67.96
66273;BME280;58450;52.150;4.466;2022-09-03T03:50:28;101049.81;;;16.97;68.18
66273;BME280;58450;52.150;4.466;2022-09-03T03:52:58;101044.78;;;16.94;68.19
66273;BME280;58450;52.150;4.466;2022-09-03T03:55:26;101048.94;;;16.96;68.03
66273;BME280;58450;52.150;4.466;2022-09-03T03:57:54;101043.94;;;16.93;69.11
66273;BME280;58450;52.150;4.466;2022-09-03T04:00:21;101039.19;;;16.89;68.53
66273;BME280;58450;52.150;4.466;2022-09-03T04:02:49;101050.25;;;16.87;68.52
66273;BME280;58450;52.150;4.466;2022-09-03T04:05:16;101047.78;;;16.86;68.55
66273;BME280;58450;52.150;4.466;2022-09-03T04:07:45;101040.69;;;16.84;68.47
66273;BME280;58450;52.150;4.466;2022-09-03T04:10:12;101044.81;;;16.87;68.22
66273;BME280;58450;52.150;4.466;2022-09-03T04:12:40;101052.22;;;16.80;68.00
66273;BME280;58450;52.150;4.466;2022-09-03T04:15:09;101056.22;;;16.77;68.50
66273;BME280;58450;52.150;4.466;2022-09-03T04:17:37;101049.13;;;16.76;69.05
66273;BME280;58450;52.150;4.466;2022-09-03T04:20:05;101052.91;;;16.75;69.24
66273;BME280;58450;52.150;4.466;2022-09-03T04:22:33;101051.97;;;16.63;69.45
66273;BME280;58450;52.150;4.466;2022-09-03T04:25:02;101044.88;;;16.62;69.77
66273;BME280;58450;52.150;4.466;2022-09-03T04:27:30;101051.97;;;16.63;70.09
66273;BME280;58450;52.150;4.466;2022-09-03T04:29:57;101049.69;;;16.60;70.25
66273;BME280;58450;52.150;4.466;2022-09-03T04:32:25;101052.19;;;16.61;70.22
66273;BME280;58450;52.150;4.466;2022-09-03T04:35:11;101044.69;;;16.57;70.26
66273;BME280;58450;52.150;4.466;2022-09-03T04:37:38;101050.81;;;16.52;71.01
66273;BME280;58450;52.150;4.466;2022-09-03T04:40:08;101048.91;;;16.52;71.56
66273;BME280;58450;52.150;4.466;2022-09-03T04:42:36;101045.81;;;16.49;71.08
66273;BME280;58450;52.150;4.466;2022-09-03T04:45:03;101043.09;;;16.49;70.96
66273;BME280;58450;52.150;4.466;2022-09-03T04:47:31;101039.34;;;16.50;71.25
66273;BME280;58450;52.150;4.466;2022-09-03T04:49:59;101040.38;;;16.49;71.75
66273;BME280;58450;52.150;4.466;2022-09-03T04:52:27;101043.91;;;16.49;72.00
66273;BME280;58450;52.150;4.466;2022-09-03T04:54:56;101044.16;;;16.48;72.08
66273;BME280;58450;52.150;4.466;2022-09-03T04:57:25;101043.31;;;16.47;72.27
66273;BME280;58450;52.150;4.466;2022-09-03T04:59:59;101041.00;;;16.51;71.78
66273;BME280;58450;52.150;4.466;2022-09-03T05:02:26;101041.19;;;16.49;71.61
66273;BME280;58450;52.150;4.466;2022-09-03T05:04:54;101038.50;;;16.49;72.17
66273;BME280;58450;52.150;4.466;2022-09-03T05:07:21;101043.31;;;16.47;71.88
66273;BME280;58450;52.150;4.466;2022-09-03T05:09:48;101039.72;;;16.53;71.88
66273;BME280;58450;52.150;4.466;2022-09-03T05:12:16;101042.66;;;16.52;71.74
66273;BME280;58450;52.150;4.466;2022-09-03T05:14:44;101048.47;;;16.55;71.66
66273;BME280;58450;52.150;4.466;2022-09-03T05:17:12;101048.09;;;16.52;71.06
66273;BME280;58450;52.150;4.466;2022-09-03T05:19:39;101042.81;;;16.57;71.33
66273;BME280;58450;52.150;4.466;2022-09-03T05:22:07;101049.31;;;16.56;71.76
66273;BME280;58450;52.150;4.466;2022-09-03T05:24:34;101050.56;;;16.53;71.21
66273;BME280;58450;52.150;4.466;2022-09-03T05:27:02;101048.69;;;16.54;71.00
66273;BME280;58450;52.150;4.466;2022-09-03T05:29:29;101044.66;;;16.63;70.82
66273;BME280;58450;52.150;4.466;2022-09-03T05:31:58;101043.38;;;16.66;71.15
66273;BME280;58450;52.150;4.466;2022-09-03T05:34:25;101047.53;;;16.68;70.76
66273;BME280;58450;52.150;4.466;2022-09-03T05:36:53;101044.59;;;16.70;71.29
66273;BME280;58450;52.150;4.466;2022-09-03T05:39:23;101040.00;;;16.71;71.41
66273;BME280;58450;52.150;4.466;2022-09-03T05:41:50;101037.88;;;16.73;71.05
66273;BME280;58450;52.150;4.466;2022-09-03T05:44:18;101043.75;;;16.69;70.78
66273;BME280;58450;52.150;4.466;2022-09-03T05:46:48;101037.66;;;16.74;72.45
66273;BME280;58450;52.150;4.466;2022-09-03T05:49:18;101037.69;;;16.93;74.15
66273;BME280;58450;52.150;4.466;2022-09-03T05:51:45;101035.91;;;17.05;72.78
66273;BME280;58450;52.150;4.466;2022-09-03T05:54:12;101047.59;;;17.06;71.09
66273;BME280;58450;52.150;4.466;2022-09-03T05:56:40;101041.22;;;17.19;71.60
66273;BME280;58450;52.150;4.466;2022-09-03T05:59:09;101049.63;;;17.29;70.28
66273;BME280;58450;52.150;4.466;2022-09-03T06:01:38;101048.22;;;17.45;69.42
66273;BME280;58450;52.150;4.466;2022-09-03T06:04:09;101049.03;;;17.46;70.67
66273;BME280;58450;52.150;4.466;2022-09-03T06:06:40;101055.06;;;17.66;69.02
66273;BME280;58450;52.150;4.466;2022-09-03T06:09:10;101049.47;;;17.61;68.79
66273;BME280;58450;52.150;4.466;2022-09-03T06:11:41;101052.78;;;17.63;68.81
66273;BME280;58450;52.150;4.466;2022-09-03T06:14:11;101052.44;;;17.60;69.15
66273;BME280;58450;52.150;4.466;2022-09-03T06:16:40;101048.69;;;17.72;68.77
66273;BME280;58450;52.150;4.466;2022-09-03T06:19:10;101057.03;;;17.90;68.62
66273;BME280;58450;52.150;4.466;2022-09-03T06:21:41;101054.75;;;18.05;67.30
66273;BME280;58450;52.150;4.466;2022-09-03T06:24:13;101068.66;;;18.15;67.20
66273;BME280;58450;52.150;4.466;2022-09-03T06:26:42;101059.16;;;18.18;66.24
66273;BME280;58450;52.150;4.466;2022-09-03T06:29:10;101060.75;;;18.26;66.58
66273;BME280;58450;52.150;4.466;2022-09-03T06:31:38;101066.88;;;18.21;68.26
66273;BME280;58450;52.150;4.466;2022-09-03T06:34:06;101067.13;;;18.31;67.12
66273;BME280;58450;52.150;4.466;2022-09-03T06:36:33;101076.03;;;18.27;67.43
66273;BME280;58450;52.150;4.466;2022-09-03T06:39:02;101069.97;;;18.25;67.90
66273;BME280;58450;52.150;4.466;2022-09-03T06:41:31;101070.78;;;18.25;67.96
66273;BME280;58450;52.150;4.466;2022-09-03T06:44:02;101066.28;;;18.19;67.96
66273;BME280;58450;52.150;4.466;2022-09-03T06:46:32;101071.72;;;18.19;68.31
66273;BME280;58450;52.150;4.466;2022-09-03T06:49:03;101070.66;;;18.20;68.55
66273;BME280;58450;52.150;4.466;2022-09-03T06:51:32;101071.91;;;18.36;68.02
66273;BME280;58450;52.150;4.466;2022-09-03T06:54:01;101077.50;;;18.53;67.87
66273;BME280;58450;52.150;4.466;2022-09-03T06:56:31;101079.75;;;18.56;68.43
66273;BME280;58450;52.150;4.466;2022-09-03T06:59:05;101077.28;;;18.67;67.75
66273;BME280;58450;52.150;4.466;2022-09-03T07:01:34;101079.66;;;18.75;67.87
66273;BME280;58450;52.150;4.466;2022-09-03T07:04:07;101086.28;;;18.91;66.97
66273;BME280;58450;52.150;4.466;2022-09-03T07:06:36;101081.91;;;18.90;66.73
66273;BME280;58450;52.150;4.466;2022-09-03T07:09:07;101081.56;;;18.86;66.60
66273;BME280;58450;52.150;4.466;2022-09-03T07:11:37;101078.72;;;19.05;66.73
66273;BME280;58450;52.150;4.466;2022-09-03T07:14:12;101088.09;;;19.09;66.60
66273;BME280;58450;52.150;4.466;2022-09-03T07:16:40;101074.19;;;19.23;65.69
66273;BME280;58450;52.150;4.466;2022-09-03T07:19:08;101076.41;;;19.49;63.31
66273;BME280;58450;52.150;4.466;2022-09-03T07:21:36;101079.84;;;19.86;62.11
66273;BME280;58450;52.150;4.466;2022-09-03T07:24:04;101078.56;;;20.34;59.53
66273;BME280;58450;52.150;4.466;2022-09-03T07:26:36;101078.53;;;21.20;57.47
66273;BME280;58450;52.150;4.466;2022-09-03T07:29:05;101083.13;;;22.08;54.20
66273;BME280;58450;52.150;4.466;2022-09-03T07:31:35;101091.78;;;22.93;51.35
66273;BME280;58450;52.150;4.466;2022-09-03T07:34:05;101087.75;;;23.06;48.62
66273;BME280;58450;52.150;4.466;2022-09-03T07:36:36;101085.25;;;23.57;48.21
66273;BME280;58450;52.150;4.466;2022-09-03T07:39:09;101084.63;;;24.24;46.71
66273;BME280;58450;52.150;4.466;2022-09-03T07:41:37;101080.47;;;24.06;44.58
66273;BME280;58450;52.150;4.466;2022-09-03T07:44:10;101084.06;;;24.89;43.91
66273;BME280;58450;52.150;4.466;2022-09-03T07:46:40;101083.91;;;25.51;41.34
66273;BME280;58450;52.150;4.466;2022-09-03T07:49:09;101079.91;;;24.97;40.93
66273;BME280;58450;52.150;4.466;2022-09-03T07:51:37;101081.28;;;25.05;42.21
66273;BME280;58450;52.150;4.466;2022-09-03T07:54:09;101079.59;;;25.85;41.40
66273;BME280;58450;52.150;4.466;2022-09-03T07:56:37;101088.09;;;26.63;40.11
66273;BME280;58450;52.150;4.466;2022-09-03T07:59:06;101087.69;;;26.80;38.27
66273;BME280;58450;52.150;4.466;2022-09-03T08:01:36;101081.13;;;27.25;37.91
66273;BME280;58450;52.150;4.466;2022-09-03T08:04:05;101088.31;;;27.50;37.59
66273;BME280;58450;52.150;4.466;2022-09-03T08:06:33;101088.88;;;27.91;37.08
66273;BME280;58450;52.150;4.466;2022-09-03T08:09:02;101087.97;;;27.33;36.25
66273;BME280;58450;52.150;4.466;2022-09-03T08:11:35;101095.00;;;27.44;36.12
66273;BME280;58450;52.150;4.466;2022-09-03T08:14:06;101085.03;;;27.24;36.39
66273;BME280;58450;52.150;4.466;2022-09-03T08:16:36;101095.59;;;27.84;36.60
66273;BME280;58450;52.150;4.466;2022-09-03T08:19:06;101103.53;;;28.10;35.82
66273;BME280;58450;52.150;4.466;2022-09-03T08:21:34;101100.72;;;28.15;35.13
66273;BME280;58450;52.150;4.466;2022-09-03T08:24:03;101108.69;;;28.69;35.37
66273;BME280;58450;52.150;4.466;2022-09-03T08:26:34;101111.94;;;29.04;34.52
66273;BME280;58450;52.150;4.466;2022-09-03T08:29:03;101105.47;;;29.37;34.21
66273;BME280;58450;52.150;4.466;2022-09-03T08:31:32;101106.19;;;29.71;33.04
66273;BME280;58450;52.150;4.466;2022-09-03T08:34:02;101112.56;;;29.57;32.34
66273;BME280;58450;52.150;4.466;2022-09-03T08:36:34;101107.84;;;29.30;32.28
66273;BME280;58450;52.150;4.466;2022-09-03T08:39:05;101113.66;;;29.84;32.76
66273;BME280;58450;52.150;4.466;2022-09-03T08:41:47;101115.94;;;30.19;32.22
66273;BME280;58450;52.150;4.466;2022-09-03T08:44:35;101110.63;;;30.08;32.22
66273;BME280;58450;52.150;4.466;2022-09-03T08:47:15;101107.03;;;29.94;31.86
66273;BME280;58450;52.150;4.466;2022-09-03T08:49:49;101111.53;;;28.97;32.43
66273;BME280;58450;52.150;4.466;2022-09-03T08:52:25;101116.94;;;29.72;32.66
66273;BME280;58450;52.150;4.466;2022-09-03T08:55:14;101108.66;;;29.30;32.55
66273;BME280;58450;52.150;4.466;2022-09-03T08:57:49;101105.31;;;29.98;32.35
66273;BME280;58450;52.150;4.466;2022-09-03T09:00:24;101113.97;;;30.42;31.90
66273;BME280;58450;52.150;4.466;2022-09-03T09:03:04;101111.19;;;31.28;31.39
66273;BME280;58450;52.150;4.466;2022-09-03T09:05:46;101113.88;;;31.51;30.68
66273;BME280;58450;52.150;4.466;2022-09-03T09:08:28;101108.41;;;31.37;30.49
66273;BME280;58450;52.150;4.466;2022-09-03T09:11:09;101114.81;;;31.29;30.43
66273;BME280;58450;52.150;4.466;2022-09-03T09:13:52;101119.44;;;31.51;30.03
66273;BME280;58450;52.150;4.466;2022-09-03T09:16:32;101123.78;;;32.10;29.60
66273;BME280;58450;52.150;4.466;2022-09-03T09:19:20;101126.03;;;32.61;29.22
66273;BME280;58450;52.150;4.466;2022-09-03T09:22:01;101124.25;;;32.38;28.15
66273;BME280;58450;52.150;4.466;2022-09-03T09:24:37;101128.19;;;32.37;28.09
66273;BME280;58450;52.150;4.466;2022-09-03T09:27:08;101134.38;;;32.69;28.41
66273;BME280;58450;52.150;4.466;2022-09-03T09:29:47;101117.88;;;33.03;28.44
66273;BME280;58450;52.150;4.466;2022-09-03T09:32:17;101117.66;;;33.56;27.49
66273;BME280;58450;52.150;4.466;2022-09-03T09:34:45;101117.09;;;33.63;27.58
66273;BME280;58450;52.150;4.466;2022-09-03T09:37:15;101128.44;;;32.89;27.01
66273;BME280;58450;52.150;4.466;2022-09-03T09:39:54;101125.78;;;32.83;26.96
66273;BME280;58450;52.150;4.466;2022-09-03T09:42:23;101117.03;;;32.64;27.70
66273;BME280;58450;52.150;4.466;2022-09-03T09:44:52;101124.28;;;32.30;28.25
66273;BME280;58450;52.150;4.466;2022-09-03T09:47:23;101120.50;;;32.34;28.53
66273;BME280;58450;52.150;4.466;2022-09-03T09:49:56;101126.84;;;32.61;28.07
66273;BME280;58450;52.150;4.466;2022-09-03T09:52:26;101112.66;;;33.31;28.34
66273;BME280;58450;52.150;4.466;2022-09-03T09:55:06;101113.75;;;33.69;27.43
66273;BME280;58450;52.150;4.466;2022-09-03T09:57:35;101115.00;;;33.59;26.09
66273;BME280;58450;52.150;4.466;2022-09-03T10:00:08;101119.88;;;33.41;26.26
66273;BME280;58450;52.150;4.466;2022-09-03T10:02:39;101116.28;;;33.62;26.37
66273;BME280;58450;52.150;4.466;2022-09-03T10:05:14;101107.66;;;33.16;26.06
66273;BME280;58450;52.150;4.466;2022-09-03T10:07:54;101110.38;;;32.95;26.94
66273;BME280;58450;52.150;4.466;2022-09-03T10:10:24;101109.53;;;33.42;27.03
66273;BME280;58450;52.150;4.466;2022-09-03T10:12:58;101106.94;;;33.58;26.90
66273;BME280;58450;52.150;4.466;2022-09-03T10:15:43;101103.22;;;33.54;26.56
66273;BME280;58450;52.150;4.466;2022-09-03T10:18:21;101102.88;;;33.55;26.94
66273;BME280;58450;52.150;4.466;2022-09-03T10:21:03;101098.59;;;33.28;27.13
66273;BME280;58450;52.150;4.466;2022-09-03T10:23:48;101105.84;;;33.50;26.35
66273;BME280;58450;52.150;4.466;2022-09-03T10:26:22;101096.88;;;33.96;26.18
66273;BME280;58450;52.150;4.466;2022-09-03T10:28:56;101100.38;;;34.60;26.14
66273;BME280;58450;52.150;4.466;2022-09-03T10:31:39;101096.75;;;34.72;26.29
66273;BME280;58450;52.150;4.466;2022-09-03T10:34:21;101097.13;;;34.70;24.85
66273;BME280;58450;52.150;4.466;2022-09-03T10:37:21;101091.63;;;34.74;25.42
66273;BME280;58450;52.150;4.466;2022-09-03T10:40:09;101090.44;;;33.95;24.84
66273;BME280;58450;52.150;4.466;2022-09-03T10:42:47;101100.34;;;33.93;25.22
66273;BME280;58450;52.150;4.466;2022-09-03T10:45:32;101105.28;;;34.08;26.06
66273;BME280;58450;52.150;4.466;2022-09-03T10:48:25;101099.41;;;34.01;24.93
66273;BME280;58450;52.150;4.466;2022-09-03T10:51:05;101103.38;;;34.55;25.32
66273;BME280;58450;52.150;4.466;2022-09-03T10:53:50;101095.84;;;34.34;24.89
66273;BME280;58450;52.150;4.466;2022-09-03T10:56:31;101098.72;;;33.62;26.02
66273;BME280;58450;52.150;4.466;2022-09-03T10:59:21;101095.06;;;32.62;25.40
66273;BME280;58450;52.150;4.466;2022-09-03T11:05:01;101092.63;;;33.38;25.27
66273;BME280;58450;52.150;4.466;2022-09-03T11:07:36;101096.28;;;33.30;25.30
66273;BME280;58450;52.150;4.466;2022-09-03T11:10:12;101089.19;;;33.41;25.94
66273;BME280;58450;52.150;4.466;2022-09-03T11:12:47;101093.69;;;33.25;26.25
66273;BME280;58450;52.150;4.466;2022-09-03T11:15:24;101098.56;;;32.98;25.78
66273;BME280;58450;52.150;4.466;2022-09-03T11:18:00;101102.44;;;32.58;26.75
66273;BME280;58450;52.150;4.466;2022-09-03T11:20:36;101097.69;;;33.45;26.43
66273;BME280;58450;52.150;4.466;2022-09-03T11:23:08;101101.78;;;33.69;26.18
66273;BME280;58450;52.150;4.466;2022-09-03T11:25:42;101096.84;;;34.17;26.25
66273;BME280;58450;52.150;4.466;2022-09-03T11:28:25;101096.97;;;34.67;25.27
66273;BME280;58450;52.150;4.466;2022-09-03T11:31:16;101104.59;;;34.79;25.44
66273;BME280;58450;52.150;4.466;2022-09-03T11:33:55;101097.63;;;34.85;25.02
66273;BME280;58450;52.150;4.466;2022-09-03T11:36:31;101098.66;;;34.92;24.56
66273;BME280;58450;52.150;4.466;2022-09-03T11:39:12;101102.97;;;34.44;25.21
66273;BME280;58450;52.150;4.466;2022-09-03T11:41:55;101105.63;;;34.40;24.44
66273;BME280;58450;52.150;4.466;2022-09-03T11:44:34;101097.34;;;34.65;24.99
66273;BME280;58450;52.150;4.466;2022-09-03T11:47:14;101097.84;;;35.42;25.09
66273;BME280;58450;52.150;4.466;2022-09-03T11:49:44;101090.50;;;35.49;24.65
66273;BME280;58450;52.150;4.466;2022-09-03T11:52:27;101090.16;;;36.04;24.32
66273;BME280;58450;52.150;4.466;2022-09-03T11:54:57;101089.66;;;36.15;24.12
66273;BME280;58450;52.150;4.466;2022-09-03T11:57:27;101089.69;;;36.31;23.21
66273;BME280;58450;52.150;4.466;2022-09-03T12:00:07;101079.06;;;35.42;23.73
66273;BME280;58450;52.150;4.466;2022-09-03T12:02:43;101089.22;;;35.34;23.97
66273;BME280;58450;52.150;4.466;2022-09-03T12:05:21;101086.94;;;35.77;23.03
66273;BME280;58450;52.150;4.466;2022-09-03T12:08:32;101089.75;;;35.77;24.06
66273;BME280;58450;52.150;4.466;2022-09-03T12:11:23;101080.94;;;35.50;24.24
66273;BME280;58450;52.150;4.466;2022-09-03T12:14:05;101088.38;;;35.71;24.17
66273;BME280;58450;52.150;4.466;2022-09-03T12:16:49;101079.50;;;36.10;23.41
66273;BME280;58450;52.150;4.466;2022-09-03T12:19:29;101079.25;;;36.15;23.61
66273;BME280;58450;52.150;4.466;2022-09-03T12:22:04;101087.50;;;35.83;22.78
66273;BME280;58450;52.150;4.466;2022-09-03T12:24:33;101080.56;;;35.77;22.70
66273;BME280;58450;52.150;4.466;2022-09-03T12:27:02;101084.91;;;36.03;23.20
66273;BME280;58450;52.150;4.466;2022-09-03T12:29:30;101075.69;;;36.02;23.08
66273;BME280;58450;52.150;4.466;2022-09-03T12:32:06;101079.91;;;35.05;23.94
66273;BME280;58450;52.150;4.466;2022-09-03T12:34:37;101076.81;;;34.48;23.94
66273;BME280;58450;52.150;4.466;2022-09-03T12:37:17;101079.19;;;34.96;23.24
66273;BME280;58450;52.150;4.466;2022-09-03T12:39:51;101079.44;;;35.16;24.60
66273;BME280;58450;52.150;4.466;2022-09-03T12:42:22;101080.63;;;35.27;23.74
66273;BME280;58450;52.150;4.466;2022-09-03T12:44:52;101072.16;;;35.77;23.64
66273;BME280;58450;52.150;4.466;2022-09-03T12:47:21;101072.50;;;36.32;23.98
66273;BME280;58450;52.150;4.466;2022-09-03T12:49:51;101074.56;;;36.19;23.52
66273;BME280;58450;52.150;4.466;2022-09-03T12:52:25;101075.75;;;36.63;23.25
66273;BME280;58450;52.150;4.466;2022-09-03T12:55:00;101067.84;;;35.95;23.05
66273;BME280;58450;52.150;4.466;2022-09-03T12:57:35;101065.47;;;35.03;23.53
66273;BME280;58450;52.150;4.466;2022-09-03T13:00:09;101065.91;;;34.68;23.75
66273;BME280;58450;52.150;4.466;2022-09-03T13:02:44;101062.19;;;35.26;23.42
66273;BME280;58450;52.150;4.466;2022-09-03T13:05:19;101055.75;;;35.38;23.49
66273;BME280;58450;52.150;4.466;2022-09-03T13:07:53;101062.34;;;36.12;23.84
66273;BME280;58450;52.150;4.466;2022-09-03T13:10:27;101066.50;;;36.62;22.87
66273;BME280;58450;52.150;4.466;2022-09-03T13:12:58;101077.19;;;37.05;22.51
66273;BME280;58450;52.150;4.466;2022-09-03T13:15:28;101059.13;;;37.22;22.82
66273;BME280;58450;52.150;4.466;2022-09-03T13:18:22;101062.16;;;36.81;22.60
66273;BME280;58450;52.150;4.466;2022-09-03T13:21:07;101066.94;;;36.80;22.28
66273;BME280;58450;52.150;4.466;2022-09-03T13:24:02;101060.81;;;37.62;21.62
66273;BME280;58450;52.150;4.466;2022-09-03T13:26:50;101060.66;;;37.35;21.68
66273;BME280;58450;52.150;4.466;2022-09-03T13:29:41;101058.72;;;37.39;20.95